sensor_id;sensor_type;location;lat;lon;timestamp;P1;durP1;ratioP1;P2;durP2;ratioP2
20611;SDS011;10465;42.686;23.364;2023-05-23T00:01:20;11.45;;;9.18;;
20611;SDS011;10465;42.686;23.364;2023-05-23T00:03:46;10.90;;;9.15;;
20611;SDS011;10465;42.686;23.364;2023-05-23T00:06:13;12.00;;;8.65;;
20611;SDS011;10465;42.686;23.364;2023-05-23T00:08:38;9.45;;;8.20;;
20611;SDS011;10465;42.686;23.364;2023-05-23T00:11:04;11.05;;;7.70;;
20611;SDS011;10465;42.686;23.364;2023-05-23T00:13:30;11.77;;;8.32;;
20611;SDS011;10465;42.686;23.364;2023-05-23T00:15:58;10.23;;;8.02;;
20611;SDS011;10465;42.686;23.364;2023-05-23T00:18:24;11.00;;;8.68;;
20611;SDS011;10465;42.686;23.364;2023-05-23T00:20:50;12.23;;;9.57;;
20611;SDS011;10465;42.686;23.364;2023-05-23T00:23:16;14.73;;;10.02;;
20611;SDS011;10465;42.686;23.364;2023-05-23T00:25:46;15.65;;;10.07;;
20611;SDS011;10465;42.686;23.364;2023-05-23T00:28:17;13.13;;;9.60;;
20611;SDS011;10465;42.686;23.364;2023-05-23T00:30:42;12.98;;;9.38;;
20611;SDS011;10465;42.686;23.364;2023-05-23T00:33:08;12.20;;;9.82;;
20611;SDS011;10465;42.686;23.364;2023-05-23T00:35:33;13.20;;;10.15;;
20611;SDS011;10465;42.686;23.364;2023-05-23T00:37:59;12.35;;;9.88;;
20611;SDS011;10465;42.686;23.364;2023-05-23T00:40:26;12.45;;;9.27;;
20611;SDS011;10465;42.686;23.364;2023-05-23T00:42:52;12.43;;;9.55;;
20611;SDS011;10465;42.686;23.364;2023-05-23T00:45:17;10.82;;;8.85;;
20611;SDS011;10465;42.686;23.364;2023-05-23T00:47:43;12.15;;;9.38;;
20611;SDS011;10465;42.686;23.364;2023-05-23T00:50:13;12.70;;;9.18;;
20611;SDS011;10465;42.686;23.364;2023-05-23T00:52:40;13.45;;;9.25;;
20611;SDS011;10465;42.686;23.364;2023-05-23T00:55:07;12.77;;;9.05;;
20611;SDS011;10465;42.686;23.364;2023-05-23T00:57:33;11.18;;;9.18;;
20611;SDS011;10465;42.686;23.364;2023-05-23T01:00:04;12.20;;;9.48;;
20611;SDS011;10465;42.686;23.364;2023-05-23T01:02:41;12.45;;;8.60;;
20611;SDS011;10465;42.686;23.364;2023-05-23T01:05:12;12.00;;;9.25;;
20611;SDS011;10465;42.686;23.364;2023-05-23T01:07:41;9.98;;;8.80;;
20611;SDS011;10465;42.686;23.364;2023-05-23T01:10:07;13.80;;;9.77;;
20611;SDS011;10465;42.686;23.364;2023-05-23T01:15:14;15.40;;;10.40;;
20611;SDS011;10465;42.686;23.364;2023-05-23T01:17:54;15.32;;;11.00;;
20611;SDS011;10465;42.686;23.364;2023-05-23T01:20:30;15.98;;;11.20;;
20611;SDS011;10465;42.686;23.364;2023-05-23T01:23:08;18.33;;;12.63;;
20611;SDS011;10465;42.686;23.364;2023-05-23T01:28:26;17.35;;;11.90;;
20611;SDS011;10465;42.686;23.364;2023-05-23T01:30:56;16.23;;;12.50;;
20611;SDS011;10465;42.686;23.364;2023-05-23T01:33:24;18.52;;;12.93;;
20611;SDS011;10465;42.686;23.364;2023-05-23T01:35:52;17.42;;;13.48;;
20611;SDS011;10465;42.686;23.364;2023-05-23T01:38:20;17.88;;;13.45;;
20611;SDS011;10465;42.686;23.364;2023-05-23T01:40:46;20.15;;;13.88;;
20611;SDS011;10465;42.686;23.364;2023-05-23T01:43:11;17.40;;;12.52;;
20611;SDS011;10465;42.686;23.364;2023-05-23T01:45:37;17.55;;;12.43;;
20611;SDS011;10465;42.686;23.364;2023-05-23T01:48:03;17.85;;;13.13;;
20611;SDS011;10465;42.686;23.364;2023-05-23T01:50:30;16.48;;;12.73;;
20611;SDS011;10465;42.686;23.364;2023-05-23T01:52:56;19.45;;;13.32;;
20611;SDS011;10465;42.686;23.364;2023-05-23T01:55:22;16.20;;;12.68;;
20611;SDS011;10465;42.686;23.364;2023-05-23T01:57:50;17.25;;;12.45;;
20611;SDS011;10465;42.686;23.364;2023-05-23T02:00:17;19.73;;;13.77;;
20611;SDS011;10465;42.686;23.364;2023-05-23T02:02:43;17.70;;;12.38;;
20611;SDS011;10465;42.686;23.364;2023-05-23T02:05:09;16.20;;;12.85;;
20611;SDS011;10465;42.686;23.364;2023-05-23T02:07:35;16.15;;;11.85;;
20611;SDS011;10465;42.686;23.364;2023-05-23T02:10:00;17.30;;;12.43;;
20611;SDS011;10465;42.686;23.364;2023-05-23T02:12:27;14.65;;;12.10;;
20611;SDS011;10465;42.686;23.364;2023-05-23T02:14:53;17.65;;;12.10;;
20611;SDS011;10465;42.686;23.364;2023-05-23T02:17:19;15.23;;;11.07;;
20611;SDS011;10465;42.686;23.364;2023-05-23T02:19:46;17.60;;;12.25;;
20611;SDS011;10465;42.686;23.364;2023-05-23T02:22:12;16.40;;;12.23;;
20611;SDS011;10465;42.686;23.364;2023-05-23T02:24:38;16.20;;;12.02;;
20611;SDS011;10465;42.686;23.364;2023-05-23T02:27:03;14.77;;;11.68;;
20611;SDS011;10465;42.686;23.364;2023-05-23T02:29:29;13.10;;;10.73;;
20611;SDS011;10465;42.686;23.364;2023-05-23T02:31:55;13.68;;;10.63;;
20611;SDS011;10465;42.686;23.364;2023-05-23T02:34:20;17.13;;;11.80;;
20611;SDS011;10465;42.686;23.364;2023-05-23T02:36:46;14.73;;;11.30;;
20611;SDS011;10465;42.686;23.364;2023-05-23T02:39:11;15.85;;;11.95;;
20611;SDS011;10465;42.686;23.364;2023-05-23T02:41:37;20.25;;;13.30;;
20611;SDS011;10465;42.686;23.364;2023-05-23T02:44:02;19.00;;;13.00;;
20611;SDS011;10465;42.686;23.364;2023-05-23T02:46:28;16.58;;;11.45;;
20611;SDS011;10465;42.686;23.364;2023-05-23T02:48:53;15.85;;;10.85;;
20611;SDS011;10465;42.686;23.364;2023-05-23T02:51:19;13.20;;;10.15;;
20611;SDS011;10465;42.686;23.364;2023-05-23T02:53:45;12.43;;;9.73;;
20611;SDS011;10465;42.686;23.364;2023-05-23T02:56:10;12.65;;;9.07;;
20611;SDS011;10465;42.686;23.364;2023-05-23T02:58:37;12.98;;;8.23;;
20611;SDS011;10465;42.686;23.364;2023-05-23T03:01:04;10.75;;;7.90;;
20611;SDS011;10465;42.686;23.364;2023-05-23T03:03:29;10.77;;;8.00;;
20611;SDS011;10465;42.686;23.364;2023-05-23T03:05:58;11.68;;;8.70;;
20611;SDS011;10465;42.686;23.364;2023-05-23T03:08:24;11.85;;;8.93;;
20611;SDS011;10465;42.686;23.364;2023-05-23T03:10:50;10.75;;;8.20;;
20611;SDS011;10465;42.686;23.364;2023-05-23T03:13:16;12.30;;;7.95;;
20611;SDS011;10465;42.686;23.364;2023-05-23T03:15:42;9.88;;;7.55;;
20611;SDS011;10465;42.686;23.364;2023-05-23T03:18:08;9.65;;;7.70;;
20611;SDS011;10465;42.686;23.364;2023-05-23T03:20:33;10.98;;;8.20;;
20611;SDS011;10465;42.686;23.364;2023-05-23T03:22:58;9.73;;;7.50;;
20611;SDS011;10465;42.686;23.364;2023-05-23T03:25:24;11.98;;;7.95;;
20611;SDS011;10465;42.686;23.364;2023-05-23T03:27:50;9.05;;;7.30;;
20611;SDS011;10465;42.686;23.364;2023-05-23T03:30:15;10.27;;;7.03;;
20611;SDS011;10465;42.686;23.364;2023-05-23T03:32:41;10.50;;;7.90;;
20611;SDS011;10465;42.686;23.364;2023-05-23T03:35:07;7.55;;;5.55;;
20611;SDS011;10465;42.686;23.364;2023-05-23T03:37:32;7.45;;;6.07;;
20611;SDS011;10465;42.686;23.364;2023-05-23T03:39:58;8.68;;;6.43;;
20611;SDS011;10465;42.686;23.364;2023-05-23T03:42:23;7.25;;;4.85;;
20611;SDS011;10465;42.686;23.364;2023-05-23T03:44:49;6.28;;;4.38;;
20611;SDS011;10465;42.686;23.364;2023-05-23T03:47:14;5.13;;;4.40;;
20611;SDS011;10465;42.686;23.364;2023-05-23T03:49:39;5.20;;;4.43;;
20611;SDS011;10465;42.686;23.364;2023-05-23T03:52:05;8.30;;;4.85;;
20611;SDS011;10465;42.686;23.364;2023-05-23T03:54:30;6.70;;;4.72;;
20611;SDS011;10465;42.686;23.364;2023-05-23T03:56:56;9.30;;;5.60;;
20611;SDS011;10465;42.686;23.364;2023-05-23T03:59:21;9.70;;;6.43;;
20611;SDS011;10465;42.686;23.364;2023-05-23T04:01:47;11.90;;;6.72;;
20611;SDS011;10465;42.686;23.364;2023-05-23T04:04:12;9.07;;;6.72;;
20611;SDS011;10465;42.686;23.364;2023-05-23T04:06:38;12.57;;;6.68;;
20611;SDS011;10465;42.686;23.364;2023-05-23T04:09:03;8.10;;;6.30;;
20611;SDS011;10465;42.686;23.364;2023-05-23T04:11:30;8.90;;;6.45;;
20611;SDS011;10465;42.686;23.364;2023-05-23T04:13:55;9.38;;;6.70;;
20611;SDS011;10465;42.686;23.364;2023-05-23T04:16:21;8.20;;;6.10;;
20611;SDS011;10465;42.686;23.364;2023-05-23T04:18:47;11.32;;;6.57;;
20611;SDS011;10465;42.686;23.364;2023-05-23T04:21:14;9.48;;;7.30;;
20611;SDS011;10465;42.686;23.364;2023-05-23T04:23:40;16.02;;;10.18;;
20611;SDS011;10465;42.686;23.364;2023-05-23T04:26:05;13.82;;;9.45;;
20611;SDS011;10465;42.686;23.364;2023-05-23T04:28:33;15.90;;;9.77;;
20611;SDS011;10465;42.686;23.364;2023-05-23T04:30:58;14.57;;;9.65;;
20611;SDS011;10465;42.686;23.364;2023-05-23T04:33:26;15.18;;;10.18;;
20611;SDS011;10465;42.686;23.364;2023-05-23T04:35:52;12.20;;;9.00;;
20611;SDS011;10465;42.686;23.364;2023-05-23T04:38:17;15.35;;;10.15;;
20611;SDS011;10465;42.686;23.364;2023-05-23T04:40:42;14.25;;;10.27;;
20611;SDS011;10465;42.686;23.364;2023-05-23T04:43:08;15.38;;;10.60;;
20611;SDS011;10465;42.686;23.364;2023-05-23T04:45:34;13.90;;;10.02;;
20611;SDS011;10465;42.686;23.364;2023-05-23T04:48:01;12.43;;;8.50;;
20611;SDS011;10465;42.686;23.364;2023-05-23T04:50:26;11.45;;;7.82;;
20611;SDS011;10465;42.686;23.364;2023-05-23T04:52:57;9.93;;;7.80;;
20611;SDS011;10465;42.686;23.364;2023-05-23T04:55:22;11.45;;;8.20;;
20611;SDS011;10465;42.686;23.364;2023-05-23T04:57:47;11.43;;;8.00;;
20611;SDS011;10465;42.686;23.364;2023-05-23T05:00:14;13.00;;;8.07;;
20611;SDS011;10465;42.686;23.364;2023-05-23T05:02:39;14.30;;;8.82;;
20611;SDS011;10465;42.686;23.364;2023-05-23T05:05:06;13.57;;;8.80;;
20611;SDS011;10465;42.686;23.364;2023-05-23T05:07:31;14.43;;;9.98;;
20611;SDS011;10465;42.686;23.364;2023-05-23T05:09:59;17.25;;;10.38;;
20611;SDS011;10465;42.686;23.364;2023-05-23T05:12:25;18.30;;;10.65;;
20611;SDS011;10465;42.686;23.364;2023-05-23T05:14:50;21.95;;;12.93;;
20611;SDS011;10465;42.686;23.364;2023-05-23T05:17:16;25.73;;;14.23;;
20611;SDS011;10465;42.686;23.364;2023-05-23T05:19:43;30.67;;;15.23;;
20611;SDS011;10465;42.686;23.364;2023-05-23T05:22:11;29.92;;;15.93;;
20611;SDS011;10465;42.686;23.364;2023-05-23T05:24:37;30.48;;;18.60;;
20611;SDS011;10465;42.686;23.364;2023-05-23T05:27:04;29.52;;;18.02;;
20611;SDS011;10465;42.686;23.364;2023-05-23T05:29:33;30.98;;;18.77;;
20611;SDS011;10465;42.686;23.364;2023-05-23T05:31:59;29.50;;;17.15;;
20611;SDS011;10465;42.686;23.364;2023-05-23T05:34:25;29.95;;;16.08;;
20611;SDS011;10465;42.686;23.364;2023-05-23T05:36:53;28.38;;;16.05;;
20611;SDS011;10465;42.686;23.364;2023-05-23T05:39:21;31.45;;;17.30;;
20611;SDS011;10465;42.686;23.364;2023-05-23T05:41:48;29.85;;;17.58;;
20611;SDS011;10465;42.686;23.364;2023-05-23T05:44:15;30.77;;;17.27;;
20611;SDS011;10465;42.686;23.364;2023-05-23T05:46:40;29.65;;;16.02;;
20611;SDS011;10465;42.686;23.364;2023-05-23T05:49:06;29.20;;;16.92;;
20611;SDS011;10465;42.686;23.364;2023-05-23T05:51:33;27.90;;;16.35;;
20611;SDS011;10465;42.686;23.364;2023-05-23T05:53:58;27.92;;;15.85;;
20611;SDS011;10465;42.686;23.364;2023-05-23T05:56:24;27.25;;;16.73;;
20611;SDS011;10465;42.686;23.364;2023-05-23T05:58:52;27.83;;;15.90;;
20611;SDS011;10465;42.686;23.364;2023-05-23T06:01:17;24.98;;;16.55;;
20611;SDS011;10465;42.686;23.364;2023-05-23T06:03:43;25.85;;;15.65;;
20611;SDS011;10465;42.686;23.364;2023-05-23T06:06:08;25.08;;;15.82;;
20611;SDS011;10465;42.686;23.364;2023-05-23T06:08:34;26.30;;;15.50;;
20611;SDS011;10465;42.686;23.364;2023-05-23T06:10:59;25.35;;;16.40;;
20611;SDS011;10465;42.686;23.364;2023-05-23T06:13:25;26.35;;;16.58;;
20611;SDS011;10465;42.686;23.364;2023-05-23T06:15:51;28.00;;;16.92;;
20611;SDS011;10465;42.686;23.364;2023-05-23T06:18:17;28.45;;;16.23;;
20611;SDS011;10465;42.686;23.364;2023-05-23T06:20:43;27.17;;;16.63;;
20611;SDS011;10465;42.686;23.364;2023-05-23T06:23:08;26.23;;;18.00;;
20611;SDS011;10465;42.686;23.364;2023-05-23T06:25:34;28.35;;;17.73;;
20611;SDS011;10465;42.686;23.364;2023-05-23T06:27:59;28.20;;;18.15;;
20611;SDS011;10465;42.686;23.364;2023-05-23T06:30:25;28.77;;;18.48;;
20611;SDS011;10465;42.686;23.364;2023-05-23T06:32:50;32.17;;;18.52;;
20611;SDS011;10465;42.686;23.364;2023-05-23T06:35:16;30.50;;;17.98;;
20611;SDS011;10465;42.686;23.364;2023-05-23T06:37:42;28.95;;;18.90;;
20611;SDS011;10465;42.686;23.364;2023-05-23T06:40:10;30.65;;;19.45;;
20611;SDS011;10465;42.686;23.364;2023-05-23T06:42:37;34.70;;;18.85;;
20611;SDS011;10465;42.686;23.364;2023-05-23T06:45:03;31.50;;;20.10;;
20611;SDS011;10465;42.686;23.364;2023-05-23T06:47:29;29.73;;;19.20;;
20611;SDS011;10465;42.686;23.364;2023-05-23T06:49:54;34.35;;;19.33;;
20611;SDS011;10465;42.686;23.364;2023-05-23T06:52:20;31.95;;;20.27;;
20611;SDS011;10465;42.686;23.364;2023-05-23T06:54:45;32.00;;;20.17;;
20611;SDS011;10465;42.686;23.364;2023-05-23T06:57:11;33.70;;;20.65;;
20611;SDS011;10465;42.686;23.364;2023-05-23T06:59:36;35.88;;;20.90;;
20611;SDS011;10465;42.686;23.364;2023-05-23T07:02:01;36.08;;;22.42;;
20611;SDS011;10465;42.686;23.364;2023-05-23T07:04:29;33.10;;;21.35;;
20611;SDS011;10465;42.686;23.364;2023-05-23T07:06:54;38.83;;;21.38;;
20611;SDS011;10465;42.686;23.364;2023-05-23T07:09:20;41.22;;;23.13;;
20611;SDS011;10465;42.686;23.364;2023-05-23T07:11:49;36.60;;;21.73;;
20611;SDS011;10465;42.686;23.364;2023-05-23T07:14:15;33.60;;;21.95;;
20611;SDS011;10465;42.686;23.364;2023-05-23T07:16:40;33.67;;;21.85;;
20611;SDS011;10465;42.686;23.364;2023-05-23T07:19:07;37.30;;;22.65;;
20611;SDS011;10465;42.686;23.364;2023-05-23T07:21:32;35.40;;;22.00;;
20611;SDS011;10465;42.686;23.364;2023-05-23T07:23:58;35.72;;;20.70;;
20611;SDS011;10465;42.686;23.364;2023-05-23T07:26:24;34.63;;;21.67;;
20611;SDS011;10465;42.686;23.364;2023-05-23T07:28:51;35.00;;;22.88;;
20611;SDS011;10465;42.686;23.364;2023-05-23T07:31:16;34.58;;;22.27;;
20611;SDS011;10465;42.686;23.364;2023-05-23T07:33:42;30.90;;;22.42;;
20611;SDS011;10465;42.686;23.364;2023-05-23T07:36:08;36.67;;;23.95;;
20611;SDS011;10465;42.686;23.364;2023-05-23T07:38:34;31.10;;;22.08;;
20611;SDS011;10465;42.686;23.364;2023-05-23T07:41:00;37.28;;;22.83;;
20611;SDS011;10465;42.686;23.364;2023-05-23T07:43:26;32.33;;;22.63;;
20611;SDS011;10465;42.686;23.364;2023-05-23T07:45:51;32.22;;;21.45;;
20611;SDS011;10465;42.686;23.364;2023-05-23T07:48:17;32.03;;;22.40;;
20611;SDS011;10465;42.686;23.364;2023-05-23T07:50:42;34.20;;;22.67;;
20611;SDS011;10465;42.686;23.364;2023-05-23T07:53:07;32.70;;;21.55;;
20611;SDS011;10465;42.686;23.364;2023-05-23T07:55:33;33.38;;;21.52;;
20611;SDS011;10465;42.686;23.364;2023-05-23T07:57:58;31.50;;;21.50;;
20611;SDS011;10465;42.686;23.364;2023-05-23T08:00:24;30.48;;;21.33;;
20611;SDS011;10465;42.686;23.364;2023-05-23T08:02:51;30.48;;;20.50;;
20611;SDS011;10465;42.686;23.364;2023-05-23T08:05:16;29.73;;;19.15;;
20611;SDS011;10465;42.686;23.364;2023-05-23T08:07:43;23.42;;;17.73;;
20611;SDS011;10465;42.686;23.364;2023-05-23T08:10:11;23.33;;;18.35;;
20611;SDS011;10465;42.686;23.364;2023-05-23T08:12:36;25.92;;;17.50;;
20611;SDS011;10465;42.686;23.364;2023-05-23T08:15:01;22.17;;;15.98;;
20611;SDS011;10465;42.686;23.364;2023-05-23T08:17:29;22.17;;;16.40;;
20611;SDS011;10465;42.686;23.364;2023-05-23T08:19:54;21.05;;;16.65;;
20611;SDS011;10465;42.686;23.364;2023-05-23T08:22:19;21.42;;;16.50;;
20611;SDS011;10465;42.686;23.364;2023-05-23T08:24:45;19.65;;;15.38;;
20611;SDS011;10465;42.686;23.364;2023-05-23T08:27:11;18.45;;;14.88;;
20611;SDS011;10465;42.686;23.364;2023-05-23T08:29:36;19.08;;;14.65;;
20611;SDS011;10465;42.686;23.364;2023-05-23T08:32:02;20.83;;;15.52;;
20611;SDS011;10465;42.686;23.364;2023-05-23T08:34:27;17.27;;;13.88;;
20611;SDS011;10465;42.686;23.364;2023-05-23T08:36:53;17.58;;;13.45;;
20611;SDS011;10465;42.686;23.364;2023-05-23T08:39:19;19.17;;;14.00;;
20611;SDS011;10465;42.686;23.364;2023-05-23T08:41:44;18.42;;;13.45;;
20611;SDS011;10465;42.686;23.364;2023-05-23T08:44:11;17.33;;;14.00;;
20611;SDS011;10465;42.686;23.364;2023-05-23T08:46:38;19.48;;;13.15;;
20611;SDS011;10465;42.686;23.364;2023-05-23T08:49:08;18.48;;;13.45;;
20611;SDS011;10465;42.686;23.364;2023-05-23T08:51:34;15.77;;;12.23;;
20611;SDS011;10465;42.686;23.364;2023-05-23T08:54:02;19.95;;;13.95;;
20611;SDS011;10465;42.686;23.364;2023-05-23T08:56:30;18.42;;;13.48;;
20611;SDS011;10465;42.686;23.364;2023-05-23T08:58:56;15.23;;;12.43;;
20611;SDS011;10465;42.686;23.364;2023-05-23T09:01:22;18.10;;;12.60;;
20611;SDS011;10465;42.686;23.364;2023-05-23T09:03:48;15.40;;;12.57;;
20611;SDS011;10465;42.686;23.364;2023-05-23T09:06:15;16.58;;;12.10;;
20611;SDS011;10465;42.686;23.364;2023-05-23T09:08:45;17.02;;;12.07;;
20611;SDS011;10465;42.686;23.364;2023-05-23T09:11:10;15.93;;;11.38;;
20611;SDS011;10465;42.686;23.364;2023-05-23T09:13:37;15.00;;;11.57;;
20611;SDS011;10465;42.686;23.364;2023-05-23T09:16:08;16.35;;;11.95;;
20611;SDS011;10465;42.686;23.364;2023-05-23T09:18:41;15.48;;;11.35;;
20611;SDS011;10465;42.686;23.364;2023-05-23T09:21:08;13.82;;;9.90;;
20611;SDS011;10465;42.686;23.364;2023-05-23T09:23:35;14.25;;;9.60;;
20611;SDS011;10465;42.686;23.364;2023-05-23T09:26:04;11.65;;;9.82;;
20611;SDS011;10465;42.686;23.364;2023-05-23T09:28:35;11.50;;;8.80;;
20611;SDS011;10465;42.686;23.364;2023-05-23T09:31:05;11.93;;;8.35;;
20611;SDS011;10465;42.686;23.364;2023-05-23T09:33:37;10.60;;;8.55;;
20611;SDS011;10465;42.686;23.364;2023-05-23T09:36:13;12.57;;;7.45;;
20611;SDS011;10465;42.686;23.364;2023-05-23T09:38:39;10.80;;;6.13;;
20611;SDS011;10465;42.686;23.364;2023-05-23T09:41:06;9.05;;;6.68;;
20611;SDS011;10465;42.686;23.364;2023-05-23T09:43:32;10.05;;;5.78;;
20611;SDS011;10465;42.686;23.364;2023-05-23T09:46:08;8.75;;;5.53;;
20611;SDS011;10465;42.686;23.364;2023-05-23T09:48:35;5.90;;;5.03;;
20611;SDS011;10465;42.686;23.364;2023-05-23T09:51:05;10.65;;;5.82;;
20611;SDS011;10465;42.686;23.364;2023-05-23T09:53:31;8.27;;;5.65;;
20611;SDS011;10465;42.686;23.364;2023-05-23T09:56:00;7.07;;;5.13;;
20611;SDS011;10465;42.686;23.364;2023-05-23T09:58:28;7.45;;;5.10;;
20611;SDS011;10465;42.686;23.364;2023-05-23T10:00:56;5.95;;;5.35;;
20611;SDS011;10465;42.686;23.364;2023-05-23T10:03:33;7.05;;;5.32;;
20611;SDS011;10465;42.686;23.364;2023-05-23T10:06:25;9.40;;;5.40;;
20611;SDS011;10465;42.686;23.364;2023-05-23T10:09:07;10.18;;;5.47;;
20611;SDS011;10465;42.686;23.364;2023-05-23T10:14:31;7.10;;;4.32;;
20611;SDS011;10465;42.686;23.364;2023-05-23T10:20:04;8.25;;;4.75;;
20611;SDS011;10465;42.686;23.364;2023-05-23T10:22:37;6.15;;;4.25;;
20611;SDS011;10465;42.686;23.364;2023-05-23T10:25:04;5.13;;;3.92;;
20611;SDS011;10465;42.686;23.364;2023-05-23T10:27:31;6.40;;;4.05;;
20611;SDS011;10465;42.686;23.364;2023-05-23T10:30:00;4.50;;;3.45;;
20611;SDS011;10465;42.686;23.364;2023-05-23T10:32:25;11.38;;;4.32;;
20611;SDS011;10465;42.686;23.364;2023-05-23T10:45:29;5.80;;;3.90;;
20611;SDS011;10465;42.686;23.364;2023-05-23T10:48:06;5.85;;;4.05;;
20611;SDS011;10465;42.686;23.364;2023-05-23T10:51:03;9.18;;;3.83;;
20611;SDS011;10465;42.686;23.364;2023-05-23T10:53:37;5.47;;;3.40;;
20611;SDS011;10465;42.686;23.364;2023-05-23T10:56:05;4.82;;;3.85;;
20611;SDS011;10465;42.686;23.364;2023-05-23T10:58:31;5.05;;;4.55;;
20611;SDS011;10465;42.686;23.364;2023-05-23T11:01:02;5.88;;;3.72;;
20611;SDS011;10465;42.686;23.364;2023-05-23T11:03:31;4.07;;;3.78;;
20611;SDS011;10465;42.686;23.364;2023-05-23T11:05:59;7.25;;;3.70;;
20611;SDS011;10465;42.686;23.364;2023-05-23T11:08:25;8.88;;;4.20;;
20611;SDS011;10465;42.686;23.364;2023-05-23T11:11:01;7.43;;;3.75;;
20611;SDS011;10465;42.686;23.364;2023-05-23T11:16:27;6.57;;;3.80;;
20611;SDS011;10465;42.686;23.364;2023-05-23T11:27:13;7.63;;;3.85;;
20611;SDS011;10465;42.686;23.364;2023-05-23T11:29:39;7.68;;;3.63;;
20611;SDS011;10465;42.686;23.364;2023-05-23T11:32:09;6.70;;;3.85;;
20611;SDS011;10465;42.686;23.364;2023-05-23T11:34:38;4.60;;;3.45;;
20611;SDS011;10465;42.686;23.364;2023-05-23T11:37:04;6.55;;;3.75;;
20611;SDS011;10465;42.686;23.364;2023-05-23T11:39:30;6.93;;;3.25;;
20611;SDS011;10465;42.686;23.364;2023-05-23T11:42:02;4.97;;;3.30;;
20611;SDS011;10465;42.686;23.364;2023-05-23T11:44:28;9.93;;;3.47;;
20611;SDS011;10465;42.686;23.364;2023-05-23T11:47:01;6.47;;;3.38;;
20611;SDS011;10465;42.686;23.364;2023-05-23T11:49:28;6.93;;;4.32;;
20611;SDS011;10465;42.686;23.364;2023-05-23T11:51:54;5.00;;;3.75;;
20611;SDS011;10465;42.686;23.364;2023-05-23T11:54:26;5.47;;;3.60;;
20611;SDS011;10465;42.686;23.364;2023-05-23T11:56:52;5.60;;;3.35;;
20611;SDS011;10465;42.686;23.364;2023-05-23T11:59:19;8.77;;;4.00;;
20611;SDS011;10465;42.686;23.364;2023-05-23T12:01:46;6.43;;;3.90;;
20611;SDS011;10465;42.686;23.364;2023-05-23T12:04:11;6.60;;;4.32;;
20611;SDS011;10465;42.686;23.364;2023-05-23T12:06:37;4.47;;;3.92;;
20611;SDS011;10465;42.686;23.364;2023-05-23T12:09:05;5.43;;;3.75;;
20611;SDS011;10465;42.686;23.364;2023-05-23T12:11:31;5.78;;;3.70;;
20611;SDS011;10465;42.686;23.364;2023-05-23T12:14:01;4.78;;;3.15;;
20611;SDS011;10465;42.686;23.364;2023-05-23T12:16:30;5.07;;;3.72;;
20611;SDS011;10465;42.686;23.364;2023-05-23T12:18:57;8.98;;;3.75;;
20611;SDS011;10465;42.686;23.364;2023-05-23T12:21:25;6.53;;;3.83;;
20611;SDS011;10465;42.686;23.364;2023-05-23T12:23:51;5.18;;;3.40;;
20611;SDS011;10465;42.686;23.364;2023-05-23T12:26:17;10.07;;;3.65;;
20611;SDS011;10465;42.686;23.364;2023-05-23T12:28:44;5.95;;;4.25;;
20611;SDS011;10465;42.686;23.364;2023-05-23T12:31:16;5.38;;;3.67;;
20611;SDS011;10465;42.686;23.364;2023-05-23T12:33:43;5.50;;;4.00;;
20611;SDS011;10465;42.686;23.364;2023-05-23T12:36:11;4.30;;;3.85;;
20611;SDS011;10465;42.686;23.364;2023-05-23T12:38:37;13.75;;;5.75;;
20611;SDS011;10465;42.686;23.364;2023-05-23T12:43:39;7.50;;;4.30;;
20611;SDS011;10465;42.686;23.364;2023-05-23T12:46:06;6.07;;;4.00;;
20611;SDS011;10465;42.686;23.364;2023-05-23T12:48:32;5.00;;;3.28;;
20611;SDS011;10465;42.686;23.364;2023-05-23T12:50:58;5.57;;;3.28;;
20611;SDS011;10465;42.686;23.364;2023-05-23T12:53:25;7.22;;;3.47;;
20611;SDS011;10465;42.686;23.364;2023-05-23T12:55:50;4.70;;;3.38;;
20611;SDS011;10465;42.686;23.364;2023-05-23T12:58:16;5.18;;;3.58;;
20611;SDS011;10465;42.686;23.364;2023-05-23T13:00:42;7.72;;;3.22;;
20611;SDS011;10465;42.686;23.364;2023-05-23T13:03:07;3.78;;;3.35;;
20611;SDS011;10465;42.686;23.364;2023-05-23T13:05:33;5.10;;;3.47;;
20611;SDS011;10465;42.686;23.364;2023-05-23T13:07:59;4.82;;;2.88;;
20611;SDS011;10465;42.686;23.364;2023-05-23T13:10:24;5.15;;;3.45;;
20611;SDS011;10465;42.686;23.364;2023-05-23T13:12:50;3.97;;;2.92;;
20611;SDS011;10465;42.686;23.364;2023-05-23T13:15:16;4.32;;;3.30;;
20611;SDS011;10465;42.686;23.364;2023-05-23T13:17:41;6.50;;;3.40;;
20611;SDS011;10465;42.686;23.364;2023-05-23T13:20:10;4.13;;;3.38;;
20611;SDS011;10465;42.686;23.364;2023-05-23T13:22:38;6.90;;;3.50;;
20611;SDS011;10465;42.686;23.364;2023-05-23T13:25:04;6.07;;;3.75;;
20611;SDS011;10465;42.686;23.364;2023-05-23T13:27:31;5.07;;;3.33;;
20611;SDS011;10465;42.686;23.364;2023-05-23T13:29:56;4.55;;;3.33;;
20611;SDS011;10465;42.686;23.364;2023-05-23T13:32:22;5.45;;;2.90;;
20611;SDS011;10465;42.686;23.364;2023-05-23T13:34:47;5.68;;;3.30;;
20611;SDS011;10465;42.686;23.364;2023-05-23T13:37:13;4.55;;;3.35;;
20611;SDS011;10465;42.686;23.364;2023-05-23T13:39:38;5.30;;;3.22;;
20611;SDS011;10465;42.686;23.364;2023-05-23T13:42:04;6.50;;;3.03;;
20611;SDS011;10465;42.686;23.364;2023-05-23T13:44:31;4.88;;;3.58;;
20611;SDS011;10465;42.686;23.364;2023-05-23T13:47:03;4.78;;;3.40;;
20611;SDS011;10465;42.686;23.364;2023-05-23T13:49:34;5.82;;;3.30;;
20611;SDS011;10465;42.686;23.364;2023-05-23T13:52:00;4.95;;;3.35;;
20611;SDS011;10465;42.686;23.364;2023-05-23T13:54:26;5.97;;;3.00;;
20611;SDS011;10465;42.686;23.364;2023-05-23T13:56:51;3.63;;;3.17;;
20611;SDS011;10465;42.686;23.364;2023-05-23T13:59:17;7.07;;;3.47;;
20611;SDS011;10465;42.686;23.364;2023-05-23T14:01:46;6.40;;;3.38;;
20611;SDS011;10465;42.686;23.364;2023-05-23T14:04:12;3.65;;;2.95;;
20611;SDS011;10465;42.686;23.364;2023-05-23T14:06:37;4.20;;;3.05;;
20611;SDS011;10465;42.686;23.364;2023-05-23T14:09:03;4.63;;;3.28;;
20611;SDS011;10465;42.686;23.364;2023-05-23T14:11:30;4.22;;;3.30;;
20611;SDS011;10465;42.686;23.364;2023-05-23T14:13:55;6.85;;;3.70;;
20611;SDS011;10465;42.686;23.364;2023-05-23T14:16:22;4.25;;;3.47;;
20611;SDS011;10465;42.686;23.364;2023-05-23T14:18:48;4.00;;;2.80;;
20611;SDS011;10465;42.686;23.364;2023-05-23T14:21:14;3.38;;;3.00;;
20611;SDS011;10465;42.686;23.364;2023-05-23T14:23:40;7.00;;;3.20;;
20611;SDS011;10465;42.686;23.364;2023-05-23T14:26:08;4.80;;;3.17;;
20611;SDS011;10465;42.686;23.364;2023-05-23T14:28:34;4.80;;;3.08;;
20611;SDS011;10465;42.686;23.364;2023-05-23T14:31:00;4.65;;;2.95;;
20611;SDS011;10465;42.686;23.364;2023-05-23T14:33:25;6.15;;;3.35;;
20611;SDS011;10465;42.686;23.364;2023-05-23T14:35:51;7.00;;;3.22;;
20611;SDS011;10465;42.686;23.364;2023-05-23T14:38:17;5.63;;;3.58;;
20611;SDS011;10465;42.686;23.364;2023-05-23T14:40:42;4.43;;;3.55;;
20611;SDS011;10465;42.686;23.364;2023-05-23T14:43:08;4.25;;;3.40;;
20611;SDS011;10465;42.686;23.364;2023-05-23T14:45:34;3.45;;;3.03;;
20611;SDS011;10465;42.686;23.364;2023-05-23T14:48:00;4.43;;;3.58;;
20611;SDS011;10465;42.686;23.364;2023-05-23T14:50:26;7.50;;;3.72;;
20611;SDS011;10465;42.686;23.364;2023-05-23T14:52:52;3.95;;;3.15;;
20611;SDS011;10465;42.686;23.364;2023-05-23T14:55:18;3.80;;;2.80;;